CYYN

Swift Current Airport

Swift Current, Saskatchewan, Canada
METAR CYYN 152000Z AUTO 31012G19KT 250V320 9SM FEW075 25/06 A3011 RMK SLP198 DENSITY ALT 4100FT
Observed Flight Rules
Jul-15 @ 20:00 UTC (57 minutes ago) Visual Flight Rules
Wind Visibility Clouds
310° at 12 knots
 Gusting to 19 knots
9 miles
  • Few at 7,500' AGL
Temperatures Readings
Current 25°C / 77°F
Dewpoint 6°C / 43°F
Humidity 30%
Altimeter 30.11" Hg
Pressure 1019.8 hPa
Elevation 818
METAR CYYN 152000Z AUTO 31012G19KT 250V320 9SM FEW075 25/06 A3011 RMK SLP198 DENSITY ALT 4100FT
Observed Flight Rules
Jul-15 @ 20:00 UTC
(57 minutes ago)
VFR
Wind Visibility
310° at 12 knots
 Gusting to 19 knots
9 miles
Clouds
  • Few at 7,500' AGL
Temperature Dewpoint
25°C / 77°F 6°C / 43°F
Humidity Altimeter Pressure
30% 30.11" Hg 1019.8 hPa